RPLC/CRK METAR and TAF weather

Enter ICAO airport designator
Station Type Date Time Source
RPLC METAR 2020/04/07 15:00 UTC NOAA

RPLC 071500Z 36002KT 9999 FEW020 SCT100 27/22 Q1012 NOSIG RMK A2988


Station Type Date Time Source
RPLC Decoded METAR 2020/04/07 15:00 UTC NOAA

Clarkfield Pampanga International Airport, Philippines (RPLC) 15-11N 120-33E
Apr 07, 2020 - 11:00 AM EDT / 2020.04.07 1500 UTC
Wind: from the N (360 degrees) at 2 MPH (2 KT):0
Visibility: greater than 7 mile(s):0
Sky conditions: partly cloudy
Temperature: 80 F (27 C)
Dew Point: 71 F (22 C)
Relative Humidity: 74%
Pressure (altimeter): 29.88 in. Hg (1012 hPa)
ob: RPLC 071500Z 36002KT 9999 FEW020 SCT100 27/22 Q1012 NOSIG RMK A2988
cycle: 15

Station Type Date Time Source
RPLC TAF 2020/04/07 12:00 UTC NOAA

TAF RPLC 071100Z 0712/0818 18006KT 9999 FEW020 BKN300 TX36/0806Z TN25/0722Z
TEMPO 0712/0718 36008KT SCT020 BKN100

Example: see airport list